createdAt,value
2017-12-04T00:00:00.969Z,0
2017-12-04T00:00:41.527Z,0
2017-12-04T00:01:22.062Z,0
2017-12-04T00:02:02.571Z,0
2017-12-04T00:02:43.087Z,0
2017-12-04T00:03:23.770Z,0
2017-12-04T00:04:05.130Z,0
2017-12-04T00:04:45.565Z,0
2017-12-04T00:05:26.144Z,0
2017-12-04T00:06:06.797Z,0
2017-12-04T00:06:47.288Z,0
2017-12-04T00:07:27.851Z,0
2017-12-04T00:08:08.414Z,0
2017-12-04T00:08:48.956Z,0
2017-12-04T00:09:29.445Z,0
2017-12-04T00:10:09.982Z,0
2017-12-04T00:10:50.528Z,0
2017-12-04T00:11:31.133Z,0
2017-12-04T00:12:11.761Z,0
2017-12-04T00:12:52.262Z,0
2017-12-04T00:13:32.833Z,0
2017-12-04T00:14:13.317Z,0
2017-12-04T00:14:53.873Z,0
2017-12-04T00:15:34.425Z,0
2017-12-04T00:16:15.018Z,0
2017-12-04T00:16:55.560Z,0
2017-12-04T00:17:36.103Z,0
2017-12-04T00:18:16.671Z,0
2017-12-04T00:18:57.143Z,0
2017-12-04T00:19:37.711Z,0
2017-12-04T00:20:18.225Z,0
2017-12-04T00:20:58.775Z,0
2017-12-04T00:21:39.295Z,0
2017-12-04T00:22:19.940Z,0
2017-12-04T00:23:00.602Z,0
2017-12-04T00:23:41.097Z,0
2017-12-04T00:24:21.648Z,0
2017-12-04T00:25:02.206Z,0
2017-12-04T00:25:42.724Z,0
2017-12-04T00:26:23.258Z,0
2017-12-04T00:27:03.773Z,0
2017-12-04T00:27:44.322Z,0
2017-12-04T00:28:24.928Z,0
2017-12-04T00:29:05.532Z,0
2017-12-04T00:29:46.001Z,0
2017-12-04T00:30:26.525Z,0
2017-12-04T00:31:07.004Z,0
2017-12-04T00:31:47.540Z,0
2017-12-04T00:32:28.066Z,0
2017-12-04T00:33:08.605Z,0
2017-12-04T00:33:49.299Z,0
2017-12-04T00:34:29.870Z,0
2017-12-04T00:35:10.361Z,0
2017-12-04T00:35:51.069Z,0
2017-12-04T00:36:31.660Z,0
2017-12-04T00:37:12.115Z,0
2017-12-04T00:37:52.669Z,0
2017-12-04T00:38:33.291Z,0
2017-12-04T00:39:13.876Z,0
2017-12-04T00:39:54.420Z,0
2017-12-04T00:40:35.044Z,0
2017-12-04T00:41:15.574Z,0
2017-12-04T00:41:56.384Z,0
2017-12-04T00:42:36.971Z,0
2017-12-04T00:43:17.556Z,0
2017-12-04T00:43:58.118Z,0
2017-12-04T00:44:38.692Z,0
2017-12-04T00:45:19.320Z,0
2017-12-04T00:45:59.733Z,0
2017-12-04T00:46:40.289Z,0
2017-12-04T00:47:20.891Z,0
2017-12-04T00:48:01.554Z,0
2017-12-04T00:48:42.168Z,0
2017-12-04T00:49:22.739Z,0
2017-12-04T00:50:03.302Z,0
2017-12-04T00:50:43.858Z,0
2017-12-04T00:51:24.370Z,0
2017-12-04T00:52:04.892Z,0
2017-12-04T00:52:45.391Z,0
2017-12-04T00:53:25.960Z,0
2017-12-04T00:54:06.474Z,0
2017-12-04T00:54:47.031Z,0
2017-12-04T00:55:27.575Z,0
2017-12-04T00:56:08.122Z,0
2017-12-04T00:56:48.731Z,0
2017-12-04T00:57:29.276Z,0
2017-12-04T00:58:09.795Z,0
2017-12-04T00:58:50.306Z,0
2017-12-04T00:59:30.859Z,0
2017-12-04T01:00:11.418Z,0
2017-12-04T01:00:51.977Z,0
2017-12-04T01:01:32.511Z,0
2017-12-04T01:02:13.001Z,0
2017-12-04T01:02:53.551Z,0
2017-12-04T01:03:34.107Z,0
2017-12-04T01:04:14.699Z,0
2017-12-04T01:04:55.202Z,0
2017-12-04T01:05:35.762Z,0
2017-12-04T01:06:16.299Z,0
2017-12-04T01:06:56.869Z,0
2017-12-04T01:07:37.346Z,0
2017-12-04T01:08:17.876Z,0
2017-12-04T01:08:58.377Z,0
2017-12-04T01:09:38.937Z,0
2017-12-04T01:10:19.432Z,0
2017-12-04T01:10:59.993Z,0
2017-12-04T01:11:40.526Z,0
2017-12-04T01:12:21.164Z,0
2017-12-04T01:13:01.687Z,0
2017-12-04T01:13:42.174Z,0
2017-12-04T01:14:22.715Z,0
2017-12-04T01:15:03.256Z,0
2017-12-04T01:15:43.820Z,0
2017-12-04T01:16:24.320Z,0
2017-12-04T01:17:04.817Z,0
2017-12-04T01:17:45.334Z,0
2017-12-04T01:18:25.848Z,0
2017-12-04T01:19:06.383Z,0
2017-12-04T01:19:46.946Z,0
2017-12-04T01:20:27.463Z,0
2017-12-04T01:21:08.016Z,0
2017-12-04T01:21:48.471Z,0
2017-12-04T01:22:29.018Z,0
2017-12-04T01:23:09.593Z,0
2017-12-04T01:23:50.085Z,0
2017-12-04T01:24:30.650Z,0
2017-12-04T01:25:11.208Z,0
2017-12-04T01:25:51.707Z,0
2017-12-04T01:26:32.224Z,0
2017-12-04T01:27:12.803Z,0
2017-12-04T01:27:53.352Z,0
2017-12-04T01:28:33.908Z,0
2017-12-04T01:29:14.432Z,0
2017-12-04T01:29:54.983Z,0
2017-12-04T01:30:35.494Z,0
2017-12-04T01:31:16.044Z,0
2017-12-04T01:31:56.620Z,0
2017-12-04T01:32:37.131Z,0
2017-12-04T01:33:17.771Z,0
2017-12-04T01:33:58.284Z,0
2017-12-04T01:34:38.833Z,0
2017-12-04T01:35:19.365Z,0
2017-12-04T01:35:59.931Z,0
2017-12-04T01:36:40.436Z,0
2017-12-04T01:37:21.013Z,0
2017-12-04T01:38:01.495Z,0
2017-12-04T01:38:42.034Z,0
2017-12-04T01:39:22.616Z,0
2017-12-04T01:40:03.088Z,0
2017-12-04T01:40:43.621Z,0
2017-12-04T01:41:24.153Z,0
2017-12-04T01:42:04.657Z,0
2017-12-04T01:42:45.137Z,0
2017-12-04T01:43:25.698Z,0
2017-12-04T01:44:06.292Z,0
2017-12-04T01:44:46.746Z,0
2017-12-04T01:45:27.269Z,0
2017-12-04T01:46:07.790Z,0
2017-12-04T01:46:48.378Z,0
2017-12-04T01:47:28.988Z,0
2017-12-04T01:48:09.498Z,0
2017-12-04T01:48:50.044Z,0
2017-12-04T01:49:30.560Z,0
2017-12-04T01:50:11.069Z,0
2017-12-04T01:50:51.633Z,0
2017-12-04T01:51:32.151Z,0
2017-12-04T01:52:12.816Z,0
2017-12-04T01:52:53.281Z,0
2017-12-04T01:53:33.829Z,0
2017-12-04T01:54:14.358Z,0
2017-12-04T01:54:54.880Z,0
2017-12-04T01:55:35.392Z,0
2017-12-04T01:56:15.921Z,0
2017-12-04T01:56:56.480Z,0
2017-12-04T01:57:37.137Z,0
2017-12-04T01:58:17.709Z,0
2017-12-04T01:58:58.295Z,0
2017-12-04T01:59:38.803Z,0
2017-12-04T02:00:19.332Z,0
2017-12-04T02:00:59.868Z,0
2017-12-04T02:01:40.373Z,0
2017-12-04T02:02:20.946Z,0
2017-12-04T02:03:01.481Z,0
2017-12-04T02:03:42.046Z,0
2017-12-04T02:04:22.539Z,0
2017-12-04T02:05:03.076Z,0
2017-12-04T02:05:43.622Z,0
2017-12-04T02:06:24.118Z,0
2017-12-04T02:07:04.733Z,0
2017-12-04T02:07:45.223Z,0
2017-12-04T02:08:25.752Z,0
2017-12-04T02:09:06.252Z,0
2017-12-04T02:09:46.838Z,0
2017-12-04T02:10:27.319Z,0
2017-12-04T02:11:07.829Z,0
2017-12-04T02:11:48.400Z,0
2017-12-04T02:12:28.940Z,0
2017-12-04T02:13:09.479Z,0
2017-12-04T02:13:50.051Z,0
2017-12-04T02:14:30.644Z,0
2017-12-04T02:15:11.234Z,0
2017-12-04T02:15:51.806Z,0
2017-12-04T02:16:32.311Z,0
2017-12-04T02:17:12.866Z,0
2017-12-04T02:17:53.531Z,0
2017-12-04T02:18:33.989Z,0
2017-12-04T02:19:14.521Z,0
2017-12-04T02:19:55.063Z,0
2017-12-04T02:20:35.597Z,0
2017-12-04T02:21:16.129Z,0
2017-12-04T02:21:56.666Z,0
2017-12-04T02:22:37.217Z,0
2017-12-04T02:23:17.736Z,0
2017-12-04T02:23:58.288Z,0
2017-12-04T02:24:38.827Z,0
2017-12-04T02:25:19.338Z,0
2017-12-04T02:25:59.904Z,0
2017-12-04T02:26:40.397Z,0
2017-12-04T02:27:21.000Z,0
2017-12-04T02:28:01.579Z,0
2017-12-04T02:28:42.143Z,0
2017-12-04T02:29:22.655Z,0
2017-12-04T02:30:03.192Z,0
2017-12-04T02:30:43.728Z,0
2017-12-04T02:31:24.247Z,0
2017-12-04T02:32:04.806Z,0
2017-12-04T02:32:45.291Z,0
2017-12-04T02:33:25.813Z,0
2017-12-04T02:34:06.476Z,0
2017-12-04T02:34:46.953Z,0
2017-12-04T02:35:27.474Z,0
2017-12-04T02:36:08.014Z,0
2017-12-04T02:36:48.564Z,0
2017-12-04T02:37:29.044Z,0
2017-12-04T02:38:09.598Z,0
2017-12-04T02:38:50.152Z,0
2017-12-04T02:39:30.688Z,0
2017-12-04T02:40:11.312Z,0
2017-12-04T02:40:51.865Z,0
2017-12-04T02:41:32.425Z,0
2017-12-04T02:42:12.955Z,0
2017-12-04T02:42:53.460Z,0
2017-12-04T02:43:34.019Z,0
2017-12-04T02:44:14.572Z,0
2017-12-04T02:44:55.091Z,0
2017-12-04T02:45:35.856Z,0
2017-12-04T02:46:16.427Z,0
2017-12-04T02:46:56.996Z,0
2017-12-04T02:47:37.529Z,0
2017-12-04T02:48:18.048Z,0
2017-12-04T02:48:58.579Z,0
2017-12-04T02:49:39.123Z,0
2017-12-04T02:50:19.644Z,0
2017-12-04T02:51:00.153Z,0
2017-12-04T02:51:42.161Z,0
2017-12-04T02:52:21.853Z,0
2017-12-04T02:53:02.368Z,0
2017-12-04T02:53:42.888Z,0
2017-12-04T02:54:23.381Z,0
2017-12-04T02:55:03.952Z,0
2017-12-04T02:55:44.470Z,0
2017-12-04T02:56:25.016Z,0
2017-12-04T02:57:05.505Z,0
2017-12-04T02:57:46.097Z,0
2017-12-04T02:58:26.617Z,0
2017-12-04T02:59:07.171Z,0
2017-12-04T02:59:47.682Z,0
2017-12-04T03:00:28.221Z,0
2017-12-04T03:01:08.684Z,0
2017-12-04T03:01:49.273Z,0
2017-12-04T03:02:29.747Z,0
2017-12-04T03:03:10.286Z,0
2017-12-04T03:03:50.769Z,0
2017-12-04T03:04:31.291Z,0
2017-12-04T03:05:11.800Z,0
2017-12-04T03:05:52.368Z,0
2017-12-04T03:06:32.905Z,0
2017-12-04T03:07:13.398Z,0
2017-12-04T03:07:53.963Z,0
2017-12-04T03:08:34.487Z,0
2017-12-04T03:09:15.025Z,0
2017-12-04T03:09:55.558Z,0
2017-12-04T03:10:36.062Z,0
2017-12-04T03:11:16.576Z,0
2017-12-04T03:11:57.114Z,0
2017-12-04T03:12:37.658Z,0
2017-12-04T03:13:18.239Z,0
2017-12-04T03:13:58.760Z,0
2017-12-04T03:14:39.336Z,0
2017-12-04T03:15:19.863Z,0
2017-12-04T03:16:00.380Z,0
2017-12-04T03:16:40.872Z,0
2017-12-04T03:17:21.396Z,0
2017-12-04T03:18:02.006Z,0
2017-12-04T03:18:42.476Z,0
2017-12-04T03:19:22.969Z,0
2017-12-04T03:20:03.541Z,0
2017-12-04T03:20:44.085Z,0
2017-12-04T03:21:24.589Z,0
2017-12-04T03:22:05.102Z,0
2017-12-04T03:22:45.661Z,0
2017-12-04T03:23:26.186Z,0
2017-12-04T03:24:06.723Z,0
2017-12-04T03:24:47.237Z,0
2017-12-04T03:25:27.793Z,0
2017-12-04T03:26:08.332Z,0
2017-12-04T03:26:48.828Z,0
2017-12-04T03:27:29.411Z,0
2017-12-04T03:28:09.971Z,0
2017-12-04T03:28:50.455Z,0
2017-12-04T03:29:30.921Z,0
2017-12-04T03:30:11.476Z,0
2017-12-04T03:30:52.040Z,0
2017-12-04T03:31:32.527Z,0
2017-12-04T03:32:13.058Z,0
2017-12-04T03:32:53.591Z,0
2017-12-04T03:33:34.140Z,0
2017-12-04T03:34:14.665Z,0
2017-12-04T03:34:55.217Z,0
2017-12-04T03:35:35.734Z,0
2017-12-04T03:36:16.270Z,0
2017-12-04T03:36:56.819Z,0
2017-12-04T03:37:37.286Z,0
2017-12-04T03:38:17.820Z,0
2017-12-04T03:38:58.368Z,0
2017-12-04T03:39:38.918Z,0
2017-12-04T03:40:19.439Z,0
2017-12-04T03:40:59.955Z,0
2017-12-04T03:41:40.470Z,0
2017-12-04T03:42:20.974Z,0
2017-12-04T03:43:01.499Z,0
2017-12-04T03:43:42.039Z,0
2017-12-04T03:44:22.600Z,0
2017-12-04T03:45:03.088Z,0
2017-12-04T03:45:43.606Z,0
2017-12-04T03:46:24.193Z,0
2017-12-04T03:47:04.675Z,0
2017-12-04T03:47:45.217Z,0
2017-12-04T03:48:25.949Z,0
2017-12-04T03:49:06.470Z,0
2017-12-04T03:49:47.012Z,0
2017-12-04T03:50:27.492Z,0
2017-12-04T03:51:08.017Z,0
2017-12-04T03:51:48.785Z,0
2017-12-04T03:52:29.752Z,0
2017-12-04T03:53:10.366Z,0
2017-12-04T03:53:51.003Z,0
2017-12-04T03:54:31.561Z,0
2017-12-04T03:55:12.295Z,0
2017-12-04T03:55:52.820Z,0
2017-12-04T03:56:33.522Z,0
2017-12-04T03:57:14.839Z,0
2017-12-04T03:57:55.381Z,0
2017-12-04T03:58:35.948Z,0
2017-12-04T03:59:16.473Z,0
2017-12-04T03:59:57.037Z,0
2017-12-04T04:00:37.530Z,0
2017-12-04T04:01:18.112Z,0
2017-12-04T04:01:58.614Z,0
2017-12-04T04:02:39.143Z,0
2017-12-04T04:03:19.669Z,0
2017-12-04T04:04:00.213Z,0
2017-12-04T04:04:40.693Z,0
2017-12-04T04:05:21.209Z,0
2017-12-04T04:06:01.746Z,0
2017-12-04T04:06:42.252Z,0
2017-12-04T04:07:22.782Z,0
2017-12-04T04:08:03.297Z,0
2017-12-04T04:08:43.881Z,0
2017-12-04T04:09:24.298Z,0
2017-12-04T04:10:04.867Z,0
2017-12-04T04:10:45.393Z,0
2017-12-04T04:11:25.872Z,0
2017-12-04T04:12:06.423Z,0
2017-12-04T04:12:46.960Z,0
2017-12-04T04:13:27.504Z,0
2017-12-04T04:14:07.978Z,0
2017-12-04T04:14:48.494Z,0
2017-12-04T04:15:29.029Z,0
2017-12-04T04:16:09.559Z,0
2017-12-04T04:16:50.093Z,0
2017-12-04T04:17:30.614Z,0
2017-12-04T04:18:11.121Z,0
2017-12-04T04:18:52.174Z,0
2017-12-04T04:19:32.156Z,0
2017-12-04T04:20:12.692Z,0
2017-12-04T04:20:53.265Z,0
2017-12-04T04:21:33.787Z,0
2017-12-04T04:22:14.300Z,0
2017-12-04T04:22:54.788Z,0
2017-12-04T04:23:35.341Z,0
2017-12-04T04:24:15.883Z,0
2017-12-04T04:24:56.383Z,0
2017-12-04T04:25:36.929Z,0
2017-12-04T04:26:17.448Z,0
2017-12-04T04:26:58.446Z,0
2017-12-04T04:27:38.881Z,0
2017-12-04T04:28:20.182Z,0
2017-12-04T04:29:01.184Z,0
2017-12-04T04:29:41.818Z,0
2017-12-04T04:30:22.633Z,0
2017-12-04T04:31:03.435Z,0
2017-12-04T04:31:44.324Z,0
2017-12-04T04:32:25.148Z,0
2017-12-04T04:33:05.852Z,0
2017-12-04T04:33:46.734Z,0
2017-12-04T04:34:27.559Z,0
2017-12-04T04:35:08.162Z,0
2017-12-04T04:35:48.930Z,0
2017-12-04T04:36:29.483Z,0
2017-12-04T04:37:10.434Z,0
2017-12-04T04:37:51.180Z,0
2017-12-04T04:38:31.780Z,0
2017-12-04T04:39:12.314Z,0
2017-12-04T04:39:52.833Z,0
2017-12-04T04:40:33.399Z,0
2017-12-04T04:41:13.915Z,0
2017-12-04T04:43:28.512Z,0
2017-12-04T04:44:09.068Z,0
2017-12-04T04:44:49.614Z,0
2017-12-04T04:45:30.179Z,0
2017-12-04T04:46:10.709Z,0
2017-12-04T04:46:51.263Z,0
2017-12-04T04:47:31.795Z,0
2017-12-04T04:48:12.318Z,0
2017-12-04T04:48:52.888Z,0
2017-12-04T04:49:33.436Z,0
2017-12-04T04:50:14.033Z,0
2017-12-04T04:50:54.578Z,0
2017-12-04T04:51:35.207Z,0
2017-12-04T04:52:15.741Z,0
2017-12-04T04:52:56.262Z,0
2017-12-04T04:53:36.842Z,0
2017-12-04T04:54:17.436Z,0
2017-12-04T04:54:57.878Z,0
2017-12-04T04:55:38.345Z,0
2017-12-04T04:56:18.892Z,0
2017-12-04T04:56:59.504Z,0
2017-12-04T04:57:40.034Z,0
2017-12-04T04:58:20.539Z,0
2017-12-04T04:59:01.104Z,0
2017-12-04T04:59:41.630Z,0
2017-12-04T05:00:22.168Z,0
2017-12-04T05:01:02.937Z,0
2017-12-04T05:01:43.483Z,0
2017-12-04T05:02:23.944Z,0
2017-12-04T05:03:04.527Z,0
2017-12-04T05:03:45.035Z,0
2017-12-04T05:04:25.520Z,0
2017-12-04T05:05:06.107Z,0
2017-12-04T05:05:46.623Z,0
2017-12-04T05:06:27.195Z,0
2017-12-04T05:07:07.712Z,0
2017-12-04T05:07:48.208Z,0
2017-12-04T05:08:28.839Z,0
2017-12-04T05:09:09.394Z,0
2017-12-04T05:09:49.893Z,0
2017-12-04T05:10:30.418Z,0
2017-12-04T05:11:10.898Z,0
2017-12-04T05:11:51.450Z,0
2017-12-04T05:12:31.999Z,0
2017-12-04T05:13:12.511Z,0
2017-12-04T05:13:53.378Z,0
2017-12-04T05:14:33.899Z,0
2017-12-04T05:15:14.455Z,0
2017-12-04T05:15:54.983Z,0
2017-12-04T05:16:35.508Z,0
2017-12-04T05:17:16.050Z,0
2017-12-04T05:17:56.579Z,0
2017-12-04T05:18:37.063Z,0
2017-12-04T05:19:17.611Z,0
2017-12-04T05:19:58.174Z,0
2017-12-04T05:20:38.700Z,0
2017-12-04T05:21:19.245Z,0
2017-12-04T05:21:59.787Z,0
2017-12-04T05:22:40.312Z,0
2017-12-04T05:23:20.836Z,0
2017-12-04T05:24:01.402Z,0
2017-12-04T05:24:41.964Z,0
2017-12-04T05:25:22.486Z,0
2017-12-04T05:26:03.018Z,0
2017-12-04T05:26:43.671Z,0
2017-12-04T05:27:24.213Z,0
2017-12-04T05:28:04.694Z,0
2017-12-04T05:28:45.206Z,0
2017-12-04T05:29:25.745Z,0
2017-12-04T05:30:06.316Z,0
2017-12-04T05:30:46.798Z,0
2017-12-04T05:31:27.355Z,0
2017-12-04T05:32:07.869Z,0
2017-12-04T05:32:48.482Z,0
2017-12-04T05:33:29.019Z,0
2017-12-04T05:34:09.530Z,0
2017-12-04T05:34:50.080Z,0
2017-12-04T05:35:30.570Z,0
2017-12-04T05:36:11.065Z,0
2017-12-04T05:36:51.655Z,0
2017-12-04T05:37:32.145Z,0
2017-12-04T05:38:12.687Z,0
2017-12-04T05:38:53.243Z,0
2017-12-04T05:39:33.742Z,0
2017-12-04T05:40:14.258Z,0
2017-12-04T05:40:54.795Z,0
2017-12-04T05:41:35.400Z,0
2017-12-04T05:42:15.921Z,0
2017-12-04T05:42:56.463Z,0
2017-12-04T05:43:36.943Z,0
2017-12-04T05:44:17.494Z,0
2017-12-04T05:44:58.046Z,0
2017-12-04T05:45:38.568Z,0
2017-12-04T05:46:19.070Z,0
2017-12-04T05:46:59.576Z,0
2017-12-04T05:47:40.123Z,0
2017-12-04T05:48:20.650Z,0
2017-12-04T05:49:01.189Z,0
2017-12-04T05:49:41.720Z,0
2017-12-04T05:50:22.321Z,0
2017-12-04T05:51:02.786Z,0
2017-12-04T05:51:43.351Z,0
2017-12-04T05:52:23.889Z,0
2017-12-04T05:53:04.442Z,0
2017-12-04T05:53:45.003Z,0
2017-12-04T05:54:26.523Z,0
2017-12-04T05:55:07.080Z,0
2017-12-04T05:55:47.626Z,0
2017-12-04T05:56:28.141Z,0
2017-12-04T05:57:08.703Z,0
2017-12-04T05:57:49.189Z,0
2017-12-04T05:58:29.757Z,0
2017-12-04T05:59:10.313Z,0
2017-12-04T05:59:50.833Z,0
2017-12-04T06:00:31.403Z,0
2017-12-04T06:01:11.924Z,0
2017-12-04T06:01:52.498Z,0
2017-12-04T06:02:33.042Z,0
2017-12-04T06:03:13.534Z,0
2017-12-04T06:03:54.110Z,0
2017-12-04T06:04:34.656Z,0
2017-12-04T06:05:15.150Z,0
2017-12-04T06:05:55.720Z,0
2017-12-04T06:06:36.506Z,0
2017-12-04T06:07:17.015Z,0
2017-12-04T06:07:57.533Z,0
2017-12-04T06:08:38.156Z,0
2017-12-04T06:09:18.682Z,0
2017-12-04T06:09:59.929Z,0
2017-12-04T06:10:40.370Z,0
2017-12-04T06:11:21.178Z,0
2017-12-04T06:12:01.746Z,0
2017-12-04T06:12:42.461Z,0
2017-12-04T06:13:22.962Z,0
2017-12-04T06:14:03.529Z,0
2017-12-04T06:14:44.114Z,0
2017-12-04T06:15:24.643Z,0
2017-12-04T06:16:05.245Z,0
2017-12-04T06:16:45.801Z,0
2017-12-04T06:17:26.384Z,0
2017-12-04T06:18:06.962Z,0
2017-12-04T06:18:47.679Z,0
2017-12-04T06:19:28.287Z,0
2017-12-04T06:20:08.710Z,0
2017-12-04T06:20:51.879Z,0
2017-12-04T06:21:33.133Z,0
2017-12-04T06:22:14.323Z,0
2017-12-04T06:22:54.594Z,0
2017-12-04T06:23:35.821Z,0
2017-12-04T06:24:19.319Z,0
2017-12-04T06:25:02.098Z,0
2017-12-04T06:27:24.640Z,0
2017-12-04T06:28:05.340Z,0
2017-12-04T06:28:51.418Z,0
2017-12-04T06:29:31.784Z,0
2017-12-04T06:30:12.809Z,0
2017-12-04T06:30:53.312Z,0
2017-12-04T06:31:37.682Z,0
2017-12-04T06:32:18.739Z,0
2017-12-04T06:32:59.266Z,0
2017-12-04T06:33:39.921Z,0
2017-12-04T06:34:20.550Z,0
2017-12-04T06:35:01.165Z,0
2017-12-04T06:35:41.729Z,0
2017-12-04T06:36:22.293Z,0
2017-12-04T06:37:02.941Z,0
2017-12-04T06:37:44.922Z,0
2017-12-04T06:38:26.460Z,0
2017-12-04T06:39:07.456Z,0
2017-12-04T06:39:49.534Z,0
2017-12-04T06:40:30.127Z,4
2017-12-04T06:41:12.417Z,4
2017-12-04T06:43:37.532Z,4
2017-12-04T06:44:18.342Z,4
2017-12-04T06:44:59.724Z,4
2017-12-04T06:45:40.291Z,0
2017-12-04T06:46:21.067Z,0
2017-12-04T06:47:01.719Z,4
2017-12-04T06:47:42.256Z,4
2017-12-04T06:48:22.808Z,4
2017-12-04T06:49:03.351Z,4
2017-12-04T06:49:44.801Z,4
2017-12-04T06:50:25.395Z,4
2017-12-04T06:51:06.064Z,8
2017-12-04T06:51:46.591Z,4
2017-12-04T06:52:27.539Z,4
2017-12-04T06:53:08.051Z,8
2017-12-04T06:53:48.586Z,8
2017-12-04T06:54:29.231Z,8
2017-12-04T06:55:09.683Z,8
2017-12-04T06:55:50.267Z,8
2017-12-04T06:56:30.809Z,8
2017-12-04T06:57:11.461Z,12
2017-12-04T06:57:51.980Z,8
2017-12-04T06:58:34.425Z,12
2017-12-04T06:59:14.970Z,12
2017-12-04T06:59:55.570Z,12
2017-12-04T07:00:36.112Z,12
2017-12-04T07:01:16.747Z,16
2017-12-04T07:01:57.377Z,16
2017-12-04T07:02:37.966Z,20
2017-12-04T07:03:18.499Z,20
2017-12-04T07:03:59.053Z,20
2017-12-04T07:04:39.706Z,16
2017-12-04T07:05:20.351Z,20
2017-12-04T07:06:00.959Z,20
2017-12-04T07:06:41.518Z,20
2017-12-04T07:07:22.101Z,20
2017-12-04T07:08:02.697Z,20
2017-12-04T07:08:43.302Z,24
2017-12-04T07:09:23.842Z,24
2017-12-04T07:10:04.349Z,24
2017-12-04T07:10:44.901Z,28
2017-12-04T07:11:25.480Z,28
2017-12-04T07:12:06.001Z,24
2017-12-04T07:12:46.604Z,28
2017-12-04T07:13:27.457Z,28
2017-12-04T07:14:07.971Z,36
2017-12-04T07:14:48.572Z,32
2017-12-04T07:15:29.123Z,36
2017-12-04T07:16:09.619Z,36
2017-12-04T07:16:50.232Z,36
2017-12-04T07:17:30.744Z,36
2017-12-04T07:18:11.295Z,40
2017-12-04T07:18:51.906Z,40
2017-12-04T07:19:32.457Z,40
2017-12-04T07:20:13.036Z,40
2017-12-04T07:20:53.616Z,40
2017-12-04T07:21:34.101Z,44
2017-12-04T07:22:14.723Z,40
2017-12-04T07:22:55.229Z,48
2017-12-04T07:23:35.777Z,48
2017-12-04T07:24:16.387Z,48
2017-12-04T07:24:56.976Z,52
2017-12-04T07:25:37.776Z,56
2017-12-04T07:26:18.369Z,60
2017-12-04T07:26:59.039Z,64
2017-12-04T07:27:39.580Z,64
2017-12-04T07:28:20.285Z,68
2017-12-04T07:29:00.956Z,68
2017-12-04T07:29:41.806Z,72
2017-12-04T07:30:22.327Z,76
2017-12-04T07:31:03.002Z,80
2017-12-04T07:31:43.869Z,84
2017-12-04T07:32:24.479Z,92
2017-12-04T07:33:05.460Z,92
2017-12-04T07:33:46.191Z,88
2017-12-04T07:34:28.642Z,96
2017-12-04T07:35:09.522Z,108
2017-12-04T07:35:50.212Z,116
2017-12-04T07:36:31.251Z,116
2017-12-04T07:37:11.721Z,120
2017-12-04T07:37:54.512Z,132
2017-12-04T07:38:35.096Z,144
2017-12-04T07:39:15.792Z,152
2017-12-04T07:39:57.890Z,156
2017-12-04T07:40:40.232Z,164
2017-12-04T07:41:20.796Z,176
2017-12-04T07:42:01.376Z,184
2017-12-04T07:42:41.972Z,176
2017-12-04T07:43:22.422Z,172
2017-12-04T07:44:03.093Z,180
2017-12-04T07:44:45.823Z,180
2017-12-04T07:45:26.285Z,184
2017-12-04T07:46:06.833Z,180
2017-12-04T07:46:47.431Z,208
2017-12-04T07:47:28.062Z,216
2017-12-04T07:48:08.650Z,228
2017-12-04T07:48:49.209Z,236
2017-12-04T07:49:30.359Z,252
2017-12-04T07:50:10.916Z,260
2017-12-04T07:50:51.446Z,264
2017-12-04T07:51:32.045Z,264
2017-12-04T07:52:12.665Z,268
2017-12-04T07:52:55.792Z,264
2017-12-04T07:53:36.330Z,272
2017-12-04T07:54:16.887Z,280
2017-12-04T07:54:57.439Z,276
2017-12-04T07:55:37.990Z,280
2017-12-04T07:56:18.700Z,280
2017-12-04T07:57:02.839Z,268
2017-12-04T07:57:43.415Z,264
2017-12-04T07:58:23.969Z,268
2017-12-04T07:59:04.785Z,268
2017-12-04T07:59:45.318Z,268
2017-12-04T08:00:25.989Z,276
2017-12-04T08:01:06.549Z,276
2017-12-04T08:01:47.124Z,288
2017-12-04T08:02:27.670Z,292
2017-12-04T08:03:08.196Z,296
2017-12-04T08:03:48.728Z,292
2017-12-04T08:04:29.305Z,296
2017-12-04T08:05:09.890Z,288
2017-12-04T08:05:50.458Z,288
2017-12-04T08:06:31.008Z,292
2017-12-04T08:07:11.552Z,300
2017-12-04T08:07:52.035Z,300
2017-12-04T08:08:32.613Z,304
2017-12-04T08:09:13.120Z,308
2017-12-04T08:09:53.690Z,320
2017-12-04T08:10:35.189Z,324
2017-12-04T08:11:15.940Z,340
2017-12-04T08:11:56.303Z,348
2017-12-04T08:12:36.982Z,364
2017-12-04T08:13:17.770Z,372
2017-12-04T08:13:58.318Z,388
2017-12-04T08:14:38.854Z,388
2017-12-04T08:15:19.462Z,384
2017-12-04T08:16:00.101Z,384
2017-12-04T08:16:40.862Z,384
2017-12-04T08:17:21.488Z,372
2017-12-04T08:18:03.003Z,396
2017-12-04T08:18:43.618Z,400
2017-12-04T08:19:24.108Z,396
2017-12-04T08:20:04.772Z,400
2017-12-04T08:20:45.477Z,380
2017-12-04T08:21:26.542Z,384
2017-12-04T08:22:07.024Z,372
2017-12-04T08:22:48.288Z,396
2017-12-04T08:23:30.821Z,408
2017-12-04T08:24:12.224Z,400
2017-12-04T08:24:55.641Z,396
2017-12-04T08:25:36.182Z,392
2017-12-04T08:26:16.792Z,396
2017-12-04T08:26:57.457Z,404
2017-12-04T08:27:37.937Z,416
2017-12-04T08:28:18.516Z,408
2017-12-04T08:28:59.142Z,368
2017-12-04T08:29:39.689Z,348
2017-12-04T08:30:20.283Z,340
2017-12-04T08:31:00.827Z,332
2017-12-04T08:31:41.393Z,368
2017-12-04T08:32:21.991Z,336
2017-12-04T08:33:02.530Z,372
2017-12-04T08:33:43.137Z,360
2017-12-04T08:34:23.715Z,352
2017-12-04T08:35:04.255Z,352
2017-12-04T08:35:44.803Z,384
2017-12-04T08:36:25.336Z,388
2017-12-04T08:37:05.915Z,388
2017-12-04T08:37:46.465Z,392
2017-12-04T08:38:26.993Z,388
2017-12-04T08:39:07.544Z,392
2017-12-04T08:39:48.129Z,400
2017-12-04T08:40:28.683Z,408
2017-12-04T08:41:09.214Z,396
2017-12-04T08:41:49.859Z,384
2017-12-04T08:42:30.394Z,400
2017-12-04T08:43:10.955Z,412
2017-12-04T08:43:51.475Z,428
2017-12-04T08:44:32.052Z,444
2017-12-04T08:45:12.852Z,460
2017-12-04T08:45:53.449Z,492
2017-12-04T08:46:34.001Z,504
2017-12-04T08:47:14.546Z,504
2017-12-04T08:47:55.093Z,508
2017-12-04T08:48:35.620Z,492
2017-12-04T08:49:16.161Z,480
2017-12-04T08:49:56.752Z,460
2017-12-04T08:50:37.279Z,440
2017-12-04T08:51:17.861Z,432
2017-12-04T08:51:58.389Z,424
2017-12-04T08:52:38.925Z,420
2017-12-04T08:53:19.437Z,424
2017-12-04T08:54:00.016Z,420
2017-12-04T08:54:40.581Z,412
2017-12-04T08:55:21.132Z,416
2017-12-04T08:56:01.741Z,444
2017-12-04T08:56:42.253Z,456
2017-12-04T08:57:22.760Z,464
2017-12-04T08:58:03.416Z,460
2017-12-04T08:58:43.944Z,464
2017-12-04T08:59:24.493Z,476
2017-12-04T09:00:05.068Z,500
2017-12-04T09:00:45.563Z,536
2017-12-04T09:01:26.144Z,552
2017-12-04T09:02:06.665Z,556
2017-12-04T09:02:47.191Z,556
2017-12-04T09:03:27.903Z,572
2017-12-04T09:04:08.481Z,572
2017-12-04T09:04:49.005Z,584
2017-12-04T09:05:29.637Z,592
2017-12-04T09:06:10.232Z,556
2017-12-04T09:06:50.828Z,576
2017-12-04T09:07:31.340Z,588
2017-12-04T09:08:11.873Z,592
2017-12-04T09:08:52.540Z,592
2017-12-04T09:09:33.060Z,604
2017-12-04T09:10:13.738Z,636
2017-12-04T09:10:54.382Z,660
2017-12-04T09:11:34.924Z,668
2017-12-04T09:12:15.541Z,680
2017-12-04T09:12:56.100Z,700
2017-12-04T09:13:36.667Z,712
2017-12-04T09:14:17.335Z,696
2017-12-04T09:14:57.950Z,672
2017-12-04T09:15:38.575Z,668
2017-12-04T09:16:19.193Z,648
2017-12-04T09:16:59.772Z,628
2017-12-04T09:17:40.400Z,628
2017-12-04T09:18:21.088Z,636
2017-12-04T09:19:01.708Z,648
2017-12-04T09:19:42.191Z,640
2017-12-04T09:20:22.818Z,640
2017-12-04T09:21:03.414Z,648
2017-12-04T09:21:44.088Z,660
2017-12-04T09:22:24.795Z,668
2017-12-04T09:23:05.295Z,716
2017-12-04T09:23:46.000Z,752
2017-12-04T09:24:26.474Z,760
2017-12-04T09:25:07.084Z,796
2017-12-04T09:25:47.593Z,812
2017-12-04T09:26:28.354Z,832
2017-12-04T09:27:08.891Z,832
2017-12-04T09:27:49.506Z,832
2017-12-04T09:28:30.007Z,836
2017-12-04T09:29:10.539Z,836
2017-12-04T09:29:51.182Z,864
2017-12-04T09:30:31.753Z,872
2017-12-04T09:31:12.322Z,876
2017-12-04T09:31:52.886Z,888
2017-12-04T09:32:35.186Z,928
2017-12-04T09:33:15.800Z,936
2017-12-04T09:33:56.347Z,920
2017-12-04T09:34:36.983Z,916
2017-12-04T09:35:17.534Z,924
2017-12-04T09:35:58.066Z,948
2017-12-04T09:36:38.597Z,928
2017-12-04T09:37:19.187Z,904
2017-12-04T09:37:59.706Z,916
2017-12-04T09:38:40.259Z,900
2017-12-04T09:39:20.834Z,884
2017-12-04T09:40:01.411Z,868
2017-12-04T09:40:41.971Z,828
2017-12-04T09:41:22.508Z,792
2017-12-04T09:42:03.056Z,752
2017-12-04T09:42:43.607Z,724
2017-12-04T09:43:24.148Z,704
2017-12-04T09:44:04.706Z,696
2017-12-04T09:44:45.266Z,644
2017-12-04T09:45:25.800Z,636
2017-12-04T09:46:06.376Z,600
2017-12-04T09:46:46.914Z,564
2017-12-04T09:47:27.601Z,560
2017-12-04T09:48:08.152Z,556
2017-12-04T09:48:48.704Z,552
2017-12-04T09:49:29.234Z,552
2017-12-04T09:50:09.766Z,548
2017-12-04T09:50:50.260Z,564
2017-12-04T09:51:30.849Z,568
2017-12-04T09:52:11.400Z,564
2017-12-04T09:52:52.018Z,568
2017-12-04T09:53:32.565Z,568
2017-12-04T09:54:13.211Z,572